sensor_id;sensor_type;location;lat;lon;timestamp;pressure;altitude;pressure_sealevel;temperature;humidity
56006;BME280;41888;44.696;10.522;2023-04-01T00:01:02;99434.00;;;11.15;100.00
56006;BME280;41888;44.696;10.522;2023-04-01T00:03:29;99422.88;;;11.06;100.00
56006;BME280;41888;44.696;10.522;2023-04-01T00:05:57;99424.75;;;10.94;100.00
56006;BME280;41888;44.696;10.522;2023-04-01T00:08:24;99422.97;;;10.65;100.00
56006;BME280;41888;44.696;10.522;2023-04-01T00:10:51;99446.31;;;10.51;100.00
56006;BME280;41888;44.696;10.522;2023-04-01T00:13:18;99451.47;;;10.34;100.00
56006;BME280;41888;44.696;10.522;2023-04-01T00:15:44;99442.34;;;10.30;100.00
56006;BME280;41888;44.696;10.522;2023-04-01T00:18:11;99437.03;;;10.30;100.00
56006;BME280;41888;44.696;10.522;2023-04-01T00:20:38;99425.88;;;10.51;100.00
56006;BME280;41888;44.696;10.522;2023-04-01T00:23:04;99428.97;;;10.48;100.00
56006;BME280;41888;44.696;10.522;2023-04-01T00:25:31;99422.94;;;10.53;100.00
56006;BME280;41888;44.696;10.522;2023-04-01T00:27:57;99435.25;;;10.66;100.00
56006;BME280;41888;44.696;10.522;2023-04-01T00:30:23;99424.94;;;10.69;100.00
56006;BME280;41888;44.696;10.522;2023-04-01T00:32:53;99429.53;;;10.39;100.00
56006;BME280;41888;44.696;10.522;2023-04-01T00:35:20;99433.94;;;10.15;100.00
56006;BME280;41888;44.696;10.522;2023-04-01T00:37:46;99435.88;;;10.08;100.00
56006;BME280;41888;44.696;10.522;2023-04-01T00:40:28;99422.38;;;10.09;100.00
56006;BME280;41888;44.696;10.522;2023-04-01T00:42:55;99421.78;;;10.07;100.00
56006;BME280;41888;44.696;10.522;2023-04-01T00:45:35;99427.81;;;10.14;100.00
56006;BME280;41888;44.696;10.522;2023-04-01T00:48:23;99425.69;;;10.05;100.00
56006;BME280;41888;44.696;10.522;2023-04-01T00:50:59;99431.00;;;10.05;100.00
56006;BME280;41888;44.696;10.522;2023-04-01T00:53:26;99431.28;;;10.15;100.00
56006;BME280;41888;44.696;10.522;2023-04-01T00:56:11;99433.25;;;9.90;100.00
56006;BME280;41888;44.696;10.522;2023-04-01T00:58:43;99435.19;;;9.64;100.00
56006;BME280;41888;44.696;10.522;2023-04-01T01:01:10;99431.94;;;9.81;100.00
56006;BME280;41888;44.696;10.522;2023-04-01T01:03:36;99425.53;;;9.88;100.00
56006;BME280;41888;44.696;10.522;2023-04-01T01:09:10;99436.78;;;9.84;100.00
56006;BME280;41888;44.696;10.522;2023-04-01T01:12:13;99427.31;;;9.76;100.00
56006;BME280;41888;44.696;10.522;2023-04-01T01:14:57;99420.72;;;9.79;100.00
56006;BME280;41888;44.696;10.522;2023-04-01T01:17:45;99415.13;;;9.68;100.00
56006;BME280;41888;44.696;10.522;2023-04-01T01:31:37;99398.84;;;9.10;100.00
56006;BME280;41888;44.696;10.522;2023-04-01T01:36:38;99389.16;;;8.79;100.00
56006;BME280;41888;44.696;10.522;2023-04-01T01:39:07;99384.16;;;8.89;100.00
56006;BME280;41888;44.696;10.522;2023-04-01T01:41:35;99387.56;;;8.97;100.00
56006;BME280;41888;44.696;10.522;2023-04-01T01:44:06;99382.41;;;9.02;100.00
56006;BME280;41888;44.696;10.522;2023-04-01T01:46:33;99385.41;;;9.05;100.00
56006;BME280;41888;44.696;10.522;2023-04-01T01:49:00;99375.41;;;9.07;100.00
56006;BME280;41888;44.696;10.522;2023-04-01T01:51:28;99378.88;;;9.08;100.00
56006;BME280;41888;44.696;10.522;2023-04-01T01:53:55;99383.53;;;9.12;100.00
56006;BME280;41888;44.696;10.522;2023-04-01T01:56:24;99378.56;;;9.16;100.00
56006;BME280;41888;44.696;10.522;2023-04-01T01:58:56;99385.69;;;8.79;100.00
56006;BME280;41888;44.696;10.522;2023-04-01T02:01:27;99387.22;;;8.43;100.00
56006;BME280;41888;44.696;10.522;2023-04-01T02:03:56;99388.78;;;8.20;100.00
56006;BME280;41888;44.696;10.522;2023-04-01T02:06:27;99391.97;;;8.03;100.00
56006;BME280;41888;44.696;10.522;2023-04-01T02:09:00;99394.25;;;7.93;100.00
56006;BME280;41888;44.696;10.522;2023-04-01T02:11:56;99390.56;;;7.94;100.00
56006;BME280;41888;44.696;10.522;2023-04-01T02:14:25;99390.88;;;8.11;100.00
56006;BME280;41888;44.696;10.522;2023-04-01T02:17:10;99387.09;;;8.25;100.00
56006;BME280;41888;44.696;10.522;2023-04-01T02:19:57;99392.63;;;8.55;100.00
56006;BME280;41888;44.696;10.522;2023-04-01T02:22:34;99396.75;;;8.51;100.00
56006;BME280;41888;44.696;10.522;2023-04-01T02:25:05;99405.91;;;8.55;100.00
56006;BME280;41888;44.696;10.522;2023-04-01T02:27:32;99411.19;;;8.55;100.00
56006;BME280;41888;44.696;10.522;2023-04-01T02:29:59;99405.41;;;8.40;100.00
56006;BME280;41888;44.696;10.522;2023-04-01T02:32:27;99413.41;;;8.33;100.00
56006;BME280;41888;44.696;10.522;2023-04-01T02:34:54;99412.13;;;8.36;100.00
56006;BME280;41888;44.696;10.522;2023-04-01T02:37:22;99416.00;;;8.40;100.00
56006;BME280;41888;44.696;10.522;2023-04-01T02:39:49;99418.03;;;8.38;100.00
56006;BME280;41888;44.696;10.522;2023-04-01T02:42:15;99413.41;;;8.27;100.00
56006;BME280;41888;44.696;10.522;2023-04-01T02:44:41;99420.53;;;8.33;100.00
56006;BME280;41888;44.696;10.522;2023-04-01T02:47:07;99424.19;;;8.32;100.00
56006;BME280;41888;44.696;10.522;2023-04-01T02:49:33;99427.66;;;8.32;100.00
56006;BME280;41888;44.696;10.522;2023-04-01T02:52:00;99421.97;;;8.29;100.00
56006;BME280;41888;44.696;10.522;2023-04-01T02:54:26;99415.22;;;8.33;100.00
56006;BME280;41888;44.696;10.522;2023-04-01T02:56:52;99417.72;;;8.21;100.00
56006;BME280;41888;44.696;10.522;2023-04-01T02:59:18;99433.41;;;8.23;100.00
56006;BME280;41888;44.696;10.522;2023-04-01T03:01:44;99433.25;;;8.18;100.00
56006;BME280;41888;44.696;10.522;2023-04-01T03:04:11;99432.81;;;8.21;100.00
56006;BME280;41888;44.696;10.522;2023-04-01T03:06:37;99436.44;;;8.33;100.00
56006;BME280;41888;44.696;10.522;2023-04-01T03:09:03;99435.53;;;8.45;100.00
56006;BME280;41888;44.696;10.522;2023-04-01T03:11:29;99439.88;;;8.40;100.00
56006;BME280;41888;44.696;10.522;2023-04-01T03:13:55;99443.38;;;8.27;100.00
56006;BME280;41888;44.696;10.522;2023-04-01T03:16:22;99452.50;;;8.38;100.00
56006;BME280;41888;44.696;10.522;2023-04-01T03:18:48;99447.28;;;8.25;100.00
56006;BME280;41888;44.696;10.522;2023-04-01T03:21:23;99448.00;;;8.00;100.00
56006;BME280;41888;44.696;10.522;2023-04-01T03:23:50;99444.78;;;7.92;100.00
56006;BME280;41888;44.696;10.522;2023-04-01T03:26:16;99452.78;;;7.79;100.00
56006;BME280;41888;44.696;10.522;2023-04-01T03:28:43;99453.19;;;7.82;100.00
56006;BME280;41888;44.696;10.522;2023-04-01T03:31:09;99447.91;;;7.82;100.00
56006;BME280;41888;44.696;10.522;2023-04-01T03:33:36;99446.22;;;7.88;100.00
56006;BME280;41888;44.696;10.522;2023-04-01T03:36:02;99444.88;;;7.72;100.00
56006;BME280;41888;44.696;10.522;2023-04-01T03:38:33;99432.25;;;7.68;100.00
56006;BME280;41888;44.696;10.522;2023-04-01T03:40:59;99447.59;;;7.52;100.00
56006;BME280;41888;44.696;10.522;2023-04-01T03:43:26;99452.31;;;7.44;100.00
56006;BME280;41888;44.696;10.522;2023-04-01T03:45:52;99458.44;;;7.38;100.00
56006;BME280;41888;44.696;10.522;2023-04-01T03:48:19;99464.59;;;7.18;100.00
56006;BME280;41888;44.696;10.522;2023-04-01T03:50:45;99462.97;;;7.17;100.00
56006;BME280;41888;44.696;10.522;2023-04-01T03:53:12;99465.41;;;6.73;100.00
56006;BME280;41888;44.696;10.522;2023-04-01T03:55:38;99468.28;;;6.65;100.00
56006;BME280;41888;44.696;10.522;2023-04-01T03:58:05;99472.75;;;6.84;100.00
56006;BME280;41888;44.696;10.522;2023-04-01T04:00:32;99478.84;;;6.91;100.00
56006;BME280;41888;44.696;10.522;2023-04-01T04:02:59;99478.03;;;6.91;100.00
56006;BME280;41888;44.696;10.522;2023-04-01T04:05:27;99470.69;;;6.99;100.00
56006;BME280;41888;44.696;10.522;2023-04-01T04:07:53;99470.50;;;6.94;100.00
56006;BME280;41888;44.696;10.522;2023-04-01T04:10:20;99469.69;;;6.74;100.00
56006;BME280;41888;44.696;10.522;2023-04-01T04:12:49;99468.69;;;6.75;100.00
56006;BME280;41888;44.696;10.522;2023-04-01T04:15:15;99463.78;;;6.78;100.00
56006;BME280;41888;44.696;10.522;2023-04-01T04:17:41;99460.53;;;6.70;100.00
56006;BME280;41888;44.696;10.522;2023-04-01T04:20:08;99462.16;;;6.64;100.00
56006;BME280;41888;44.696;10.522;2023-04-01T04:22:34;99463.78;;;6.72;100.00
56006;BME280;41888;44.696;10.522;2023-04-01T04:25:01;99468.28;;;6.65;100.00
56006;BME280;41888;44.696;10.522;2023-04-01T04:27:27;99460.94;;;6.67;100.00
56006;BME280;41888;44.696;10.522;2023-04-01T04:29:53;99473.13;;;6.42;100.00
56006;BME280;41888;44.696;10.522;2023-04-01T04:32:19;99485.94;;;6.51;100.00
56006;BME280;41888;44.696;10.522;2023-04-01T04:34:46;99494.19;;;6.15;100.00
56006;BME280;41888;44.696;10.522;2023-04-01T04:37:12;99489.75;;;6.22;100.00
56006;BME280;41888;44.696;10.522;2023-04-01T04:39:38;99496.63;;;6.10;100.00
56006;BME280;41888;44.696;10.522;2023-04-01T04:42:05;99507.94;;;5.91;100.00
56006;BME280;41888;44.696;10.522;2023-04-01T04:44:31;99511.56;;;5.90;100.00
56006;BME280;41888;44.696;10.522;2023-04-01T04:46:57;99507.28;;;5.89;100.00
56006;BME280;41888;44.696;10.522;2023-04-01T04:49:24;99509.88;;;5.82;100.00
56006;BME280;41888;44.696;10.522;2023-04-01T04:51:51;99515.28;;;6.02;100.00
56006;BME280;41888;44.696;10.522;2023-04-01T04:54:18;99511.63;;;6.10;100.00
56006;BME280;41888;44.696;10.522;2023-04-01T04:56:44;99502.66;;;5.98;100.00
56006;BME280;41888;44.696;10.522;2023-04-01T04:59:10;99503.31;;;5.72;100.00
56006;BME280;41888;44.696;10.522;2023-04-01T05:01:36;99492.13;;;5.63;100.00
56006;BME280;41888;44.696;10.522;2023-04-01T05:04:03;99500.41;;;5.53;100.00
56006;BME280;41888;44.696;10.522;2023-04-01T05:06:29;99497.72;;;5.47;100.00
56006;BME280;41888;44.696;10.522;2023-04-01T05:08:55;99504.63;;;5.48;100.00
56006;BME280;41888;44.696;10.522;2023-04-01T05:11:22;99497.91;;;5.45;100.00
56006;BME280;41888;44.696;10.522;2023-04-01T05:13:48;99502.00;;;5.48;100.00
56006;BME280;41888;44.696;10.522;2023-04-01T05:16:18;99512.38;;;5.49;100.00
56006;BME280;41888;44.696;10.522;2023-04-01T05:18:45;99520.50;;;5.89;100.00
56006;BME280;41888;44.696;10.522;2023-04-01T05:21:12;99512.00;;;6.74;100.00
56006;BME280;41888;44.696;10.522;2023-04-01T05:23:39;99517.13;;;7.92;100.00
56006;BME280;41888;44.696;10.522;2023-04-01T05:26:11;99524.03;;;9.01;100.00
56006;BME280;41888;44.696;10.522;2023-04-01T05:28:38;99522.69;;;9.96;100.00
56006;BME280;41888;44.696;10.522;2023-04-01T05:31:05;99521.56;;;10.81;100.00
56006;BME280;41888;44.696;10.522;2023-04-01T05:33:32;99518.16;;;11.74;100.00
56006;BME280;41888;44.696;10.522;2023-04-01T05:36:11;99526.47;;;11.42;100.00
56006;BME280;41888;44.696;10.522;2023-04-01T05:38:38;99534.31;;;12.07;100.00
56006;BME280;41888;44.696;10.522;2023-04-01T05:41:04;99523.69;;;11.72;100.00
56006;BME280;41888;44.696;10.522;2023-04-01T05:43:30;99530.75;;;11.67;100.00
56006;BME280;41888;44.696;10.522;2023-04-01T05:45:57;99527.09;;;13.09;99.09
56006;BME280;41888;44.696;10.522;2023-04-01T05:48:24;99529.38;;;13.18;100.00
56006;BME280;41888;44.696;10.522;2023-04-01T05:50:50;99537.09;;;13.14;98.36
56006;BME280;41888;44.696;10.522;2023-04-01T05:53:16;99545.84;;;14.03;91.34
56006;BME280;41888;44.696;10.522;2023-04-01T05:55:42;99543.91;;;13.99;88.24
56006;BME280;41888;44.696;10.522;2023-04-01T05:58:08;99546.94;;;13.85;89.43
56006;BME280;41888;44.696;10.522;2023-04-01T06:00:34;99552.03;;;14.74;86.60
56006;BME280;41888;44.696;10.522;2023-04-01T06:03:01;99554.78;;;14.35;88.29
56006;BME280;41888;44.696;10.522;2023-04-01T06:05:30;99556.44;;;15.17;81.86
56006;BME280;41888;44.696;10.522;2023-04-01T06:08:05;99549.91;;;15.08;82.62
56006;BME280;41888;44.696;10.522;2023-04-01T06:27:20;99568.91;;;18.35;59.22
56006;BME280;41888;44.696;10.522;2023-04-01T06:32:50;99563.19;;;17.82;60.37
56006;BME280;41888;44.696;10.522;2023-04-01T06:35:36;99571.22;;;19.45;56.15
56006;BME280;41888;44.696;10.522;2023-04-01T06:41:14;99576.94;;;22.38;46.21
56006;BME280;41888;44.696;10.522;2023-04-01T06:46:50;99577.34;;;23.39;40.95
56006;BME280;41888;44.696;10.522;2023-04-01T06:49:44;99584.44;;;23.71;39.92
56006;BME280;41888;44.696;10.522;2023-04-01T06:55:16;99584.91;;;24.04;38.90
56006;BME280;41888;44.696;10.522;2023-04-01T06:57:52;99576.91;;;24.47;38.50
56006;BME280;41888;44.696;10.522;2023-04-01T07:00:35;99588.34;;;24.92;38.29
56006;BME280;41888;44.696;10.522;2023-04-01T07:05:40;99578.50;;;26.44;36.27
56006;BME280;41888;44.696;10.522;2023-04-01T07:08:13;99581.53;;;27.13;35.77
56006;BME280;41888;44.696;10.522;2023-04-01T07:11:00;99576.16;;;27.05;36.40
56006;BME280;41888;44.696;10.522;2023-04-01T07:13:35;99578.75;;;25.92;38.65
56006;BME280;41888;44.696;10.522;2023-04-01T07:16:30;99584.78;;;24.82;40.82
56006;BME280;41888;44.696;10.522;2023-04-01T07:19:24;99572.53;;;22.42;46.28
56006;BME280;41888;44.696;10.522;2023-04-01T07:24:54;99558.91;;;18.45;61.79
56006;BME280;41888;44.696;10.522;2023-04-01T07:27:20;99551.69;;;18.36;63.47
56006;BME280;41888;44.696;10.522;2023-04-01T07:29:47;99553.16;;;17.98;64.29
56006;BME280;41888;44.696;10.522;2023-04-01T07:32:15;99547.06;;;17.67;64.46
56006;BME280;41888;44.696;10.522;2023-04-01T07:40:57;99546.44;;;16.43;73.02
56006;BME280;41888;44.696;10.522;2023-04-01T07:48:43;99547.84;;;15.94;72.89
56006;BME280;41888;44.696;10.522;2023-04-01T07:59:41;99549.88;;;15.72;77.74
56006;BME280;41888;44.696;10.522;2023-04-01T08:13:44;99539.00;;;15.98;82.49
56006;BME280;41888;44.696;10.522;2023-04-01T08:16:30;99548.50;;;16.16;83.36
56006;BME280;41888;44.696;10.522;2023-04-01T08:22:20;99547.97;;;16.24;84.09
56006;BME280;41888;44.696;10.522;2023-04-01T08:24:50;99542.78;;;16.02;84.06
56006;BME280;41888;44.696;10.522;2023-04-01T08:27:36;99541.06;;;16.38;83.00
56006;BME280;41888;44.696;10.522;2023-04-01T08:33:22;99532.28;;;16.73;80.24
56006;BME280;41888;44.696;10.522;2023-04-01T08:38:38;99530.16;;;17.16;79.50
56006;BME280;41888;44.696;10.522;2023-04-01T08:53:20;99528.19;;;17.82;75.04
56006;BME280;41888;44.696;10.522;2023-04-01T09:00:36;99541.63;;;17.97;74.88
56006;BME280;41888;44.696;10.522;2023-04-01T09:09:02;99537.94;;;18.37;71.95
56006;BME280;41888;44.696;10.522;2023-04-01T09:11:43;99543.53;;;18.46;71.27
56006;BME280;41888;44.696;10.522;2023-04-01T09:14:35;99535.44;;;18.61;70.22
56006;BME280;41888;44.696;10.522;2023-04-01T09:48:35;99549.41;;;18.63;72.52
56006;BME280;41888;44.696;10.522;2023-04-01T09:53:57;99539.00;;;18.90;72.45
56006;BME280;41888;44.696;10.522;2023-04-01T09:59:20;99542.41;;;19.35;68.26
56006;BME280;41888;44.696;10.522;2023-04-01T10:05:04;99543.81;;;19.27;71.80
56006;BME280;41888;44.696;10.522;2023-04-01T10:13:55;99530.72;;;19.73;67.92
56006;BME280;41888;44.696;10.522;2023-04-01T10:31:03;99535.38;;;20.77;59.83
56006;BME280;41888;44.696;10.522;2023-04-01T10:42:10;99514.34;;;21.06;55.58
56006;BME280;41888;44.696;10.522;2023-04-01T10:53:36;99510.09;;;21.65;54.00
56006;BME280;41888;44.696;10.522;2023-04-01T11:32:54;99490.69;;;22.89;30.80
56006;BME280;41888;44.696;10.522;2023-04-01T11:38:12;99486.56;;;23.00;28.15
56006;BME280;41888;44.696;10.522;2023-04-01T11:40:54;99483.31;;;23.12;28.58
56006;BME280;41888;44.696;10.522;2023-04-01T11:46:30;99483.56;;;23.55;29.52
56006;BME280;41888;44.696;10.522;2023-04-01T11:49:29;99472.63;;;23.77;29.61
56006;BME280;41888;44.696;10.522;2023-04-01T12:02:52;99466.16;;;23.25;26.79
56006;BME280;41888;44.696;10.522;2023-04-01T12:10:49;99452.88;;;23.24;26.15
56006;BME280;41888;44.696;10.522;2023-04-01T12:13:35;99449.75;;;23.39;25.66
56006;BME280;41888;44.696;10.522;2023-04-01T12:16:21;99447.53;;;23.41;24.47
56006;BME280;41888;44.696;10.522;2023-04-01T12:19:07;99441.88;;;23.20;24.86
56006;BME280;41888;44.696;10.522;2023-04-01T12:24:47;99436.97;;;23.70;22.99
56006;BME280;41888;44.696;10.522;2023-04-01T12:44:11;99430.06;;;23.55;24.32
56006;BME280;41888;44.696;10.522;2023-04-01T12:47:17;99439.16;;;23.60;24.11
56006;BME280;41888;44.696;10.522;2023-04-01T12:55:40;99427.34;;;23.55;24.92
56006;BME280;41888;44.696;10.522;2023-04-01T13:01:09;99411.28;;;23.37;25.23
56006;BME280;41888;44.696;10.522;2023-04-01T13:12:06;99399.94;;;23.35;24.97
56006;BME280;41888;44.696;10.522;2023-04-01T13:28:23;99389.41;;;23.02;25.60
56006;BME280;41888;44.696;10.522;2023-04-01T13:49:57;99384.56;;;23.70;25.93
56006;BME280;41888;44.696;10.522;2023-04-01T13:55:47;99388.53;;;23.55;25.36
56006;BME280;41888;44.696;10.522;2023-04-01T14:03:53;99388.53;;;23.64;25.29
56006;BME280;41888;44.696;10.522;2023-04-01T14:17:45;99382.66;;;23.70;26.37
56006;BME280;41888;44.696;10.522;2023-04-01T14:20:27;99374.13;;;23.46;27.68
56006;BME280;41888;44.696;10.522;2023-04-01T14:23:06;99367.78;;;23.20;26.27
56006;BME280;41888;44.696;10.522;2023-04-01T14:42:05;99356.34;;;23.00;28.38
56006;BME280;41888;44.696;10.522;2023-04-01T14:47:51;99344.69;;;22.69;27.04
56006;BME280;41888;44.696;10.522;2023-04-01T14:50:28;99339.53;;;22.81;27.75
56006;BME280;41888;44.696;10.522;2023-04-01T14:53:26;99354.97;;;22.72;28.40
56006;BME280;41888;44.696;10.522;2023-04-01T14:55:55;99339.22;;;22.38;28.26
56006;BME280;41888;44.696;10.522;2023-04-01T14:58:40;99349.03;;;22.48;27.47
56006;BME280;41888;44.696;10.522;2023-04-01T15:20:21;99342.75;;;22.61;26.62
56006;BME280;41888;44.696;10.522;2023-04-01T15:25:41;99345.22;;;22.71;27.40
56006;BME280;41888;44.696;10.522;2023-04-01T15:28:39;99339.19;;;22.52;26.36
56006;BME280;41888;44.696;10.522;2023-04-01T15:31:25;99340.66;;;22.36;25.85
56006;BME280;41888;44.696;10.522;2023-04-01T15:47:42;99334.00;;;21.97;27.33
56006;BME280;41888;44.696;10.522;2023-04-01T15:50:33;99332.09;;;22.20;27.31
56006;BME280;41888;44.696;10.522;2023-04-01T15:55:39;99325.94;;;21.92;27.31
56006;BME280;41888;44.696;10.522;2023-04-01T15:58:30;99329.19;;;21.94;27.21
56006;BME280;41888;44.696;10.522;2023-04-01T16:12:07;99357.13;;;19.97;30.31
56006;BME280;41888;44.696;10.522;2023-04-01T16:22:40;99346.09;;;19.32;31.97
56006;BME280;41888;44.696;10.522;2023-04-01T16:35:47;99331.88;;;19.03;33.84
56006;BME280;41888;44.696;10.522;2023-04-01T16:41:17;99322.19;;;18.73;35.67
56006;BME280;41888;44.696;10.522;2023-04-01T16:43:49;99313.81;;;18.45;35.95
56006;BME280;41888;44.696;10.522;2023-04-01T16:46:33;99325.97;;;18.43;36.10
56006;BME280;41888;44.696;10.522;2023-04-01T16:54:36;99330.66;;;17.88;36.88
56006;BME280;41888;44.696;10.522;2023-04-01T16:59:39;99331.28;;;17.80;37.67
56006;BME280;41888;44.696;10.522;2023-04-01T17:02:10;99331.03;;;17.71;37.97
56006;BME280;41888;44.696;10.522;2023-04-01T17:05:00;99331.88;;;17.67;38.11
56006;BME280;41888;44.696;10.522;2023-04-01T17:20:46;99340.03;;;17.42;40.01
56006;BME280;41888;44.696;10.522;2023-04-01T17:23:43;99340.63;;;17.34;40.40
56006;BME280;41888;44.696;10.522;2023-04-01T17:29:10;99351.19;;;17.05;41.45
56006;BME280;41888;44.696;10.522;2023-04-01T17:34:56;99353.38;;;16.82;41.16
56006;BME280;41888;44.696;10.522;2023-04-01T17:50:58;99355.53;;;16.10;45.44
56006;BME280;41888;44.696;10.522;2023-04-01T17:56:15;99356.81;;;15.82;46.58
56006;BME280;41888;44.696;10.522;2023-04-01T17:59:21;99354.91;;;15.72;47.50
56006;BME280;41888;44.696;10.522;2023-04-01T18:10:26;99368.66;;;15.34;47.34
56006;BME280;41888;44.696;10.522;2023-04-01T18:19:03;99357.09;;;15.23;47.67
56006;BME280;41888;44.696;10.522;2023-04-01T18:21:52;99361.16;;;15.26;47.42
56006;BME280;41888;44.696;10.522;2023-04-01T18:24:41;99361.41;;;15.29;46.85
56006;BME280;41888;44.696;10.522;2023-04-01T18:37:52;99376.13;;;15.21;48.50
56006;BME280;41888;44.696;10.522;2023-04-01T18:43:12;99369.91;;;15.11;51.52
56006;BME280;41888;44.696;10.522;2023-04-01T18:46:01;99367.16;;;14.96;52.77
56006;BME280;41888;44.696;10.522;2023-04-01T18:54:11;99369.88;;;15.01;53.07
56006;BME280;41888;44.696;10.522;2023-04-01T18:56:41;99367.25;;;15.16;53.09
56006;BME280;41888;44.696;10.522;2023-04-01T18:59:26;99372.41;;;15.23;53.29
56006;BME280;41888;44.696;10.522;2023-04-01T19:02:11;99370.56;;;15.33;52.63
56006;BME280;41888;44.696;10.522;2023-04-01T19:21:21;99379.03;;;15.10;54.70
56006;BME280;41888;44.696;10.522;2023-04-01T19:42:54;99381.13;;;15.08;53.42
56006;BME280;41888;44.696;10.522;2023-04-01T20:05:32;99381.22;;;14.81;53.33
56006;BME280;41888;44.696;10.522;2023-04-01T20:14:06;99377.19;;;14.73;53.19
56006;BME280;41888;44.696;10.522;2023-04-01T20:16:21;99379.53;;;14.70;52.52
56006;BME280;41888;44.696;10.522;2023-04-01T20:18:58;99375.00;;;14.70;51.84
56006;BME280;41888;44.696;10.522;2023-04-01T20:21:46;99382.84;;;14.82;51.29
56006;BME280;41888;44.696;10.522;2023-04-01T20:24:43;99381.97;;;14.71;51.83
56006;BME280;41888;44.696;10.522;2023-04-01T20:35:47;99390.94;;;14.55;52.67
56006;BME280;41888;44.696;10.522;2023-04-01T20:41:27;99395.72;;;14.48;53.23
56006;BME280;41888;44.696;10.522;2023-04-01T20:44:26;99383.91;;;14.44;53.22
56006;BME280;41888;44.696;10.522;2023-04-01T20:53:07;99391.47;;;14.52;51.21
56006;BME280;41888;44.696;10.522;2023-04-01T20:58:32;99386.66;;;14.54;50.02
56006;BME280;41888;44.696;10.522;2023-04-01T21:04:06;99389.19;;;14.71;48.15
56006;BME280;41888;44.696;10.522;2023-04-01T21:07:37;99398.81;;;14.67;47.18
56006;BME280;41888;44.696;10.522;2023-04-01T21:10:12;99383.09;;;14.80;46.46
56006;BME280;41888;44.696;10.522;2023-04-01T21:12:56;99394.31;;;14.72;47.10
56006;BME280;41888;44.696;10.522;2023-04-01T21:18:36;99392.13;;;14.64;46.48
56006;BME280;41888;44.696;10.522;2023-04-01T21:23:58;99387.78;;;14.58;45.99
56006;BME280;41888;44.696;10.522;2023-04-01T21:27:13;99387.28;;;14.66;45.44
56006;BME280;41888;44.696;10.522;2023-04-01T21:32:24;99388.06;;;14.62;44.83
56006;BME280;41888;44.696;10.522;2023-04-01T21:35:16;99393.63;;;14.55;45.03
56006;BME280;41888;44.696;10.522;2023-04-01T21:46:21;99412.31;;;14.50;45.49
56006;BME280;41888;44.696;10.522;2023-04-01T21:51:49;99399.72;;;14.46;45.79
56006;BME280;41888;44.696;10.522;2023-04-01T22:00:09;99397.00;;;14.41;44.30
56006;BME280;41888;44.696;10.522;2023-04-01T22:03:22;99409.03;;;14.38;44.50
56006;BME280;41888;44.696;10.522;2023-04-01T22:06:04;99403.06;;;14.36;44.81
56006;BME280;41888;44.696;10.522;2023-04-01T22:11:37;99400.91;;;14.33;44.33
56006;BME280;41888;44.696;10.522;2023-04-01T22:17:13;99417.63;;;14.45;43.68
56006;BME280;41888;44.696;10.522;2023-04-01T22:19:56;99407.50;;;14.47;43.45
56006;BME280;41888;44.696;10.522;2023-04-01T22:22:52;99405.91;;;14.51;43.06
56006;BME280;41888;44.696;10.522;2023-04-01T22:25:34;99406.19;;;14.55;42.96
56006;BME280;41888;44.696;10.522;2023-04-01T22:31:07;99417.47;;;14.30;44.04
56006;BME280;41888;44.696;10.522;2023-04-01T22:36:20;99423.28;;;14.22;44.35
56006;BME280;41888;44.696;10.522;2023-04-01T22:38:58;99415.94;;;14.12;47.42
56006;BME280;41888;44.696;10.522;2023-04-01T22:43:58;99429.78;;;13.39;54.85
56006;BME280;41888;44.696;10.522;2023-04-01T22:49:26;99430.03;;;13.16;58.01
56006;BME280;41888;44.696;10.522;2023-04-01T22:55:00;99433.06;;;13.24;58.25
56006;BME280;41888;44.696;10.522;2023-04-01T23:03:01;99429.69;;;13.12;61.10
56006;BME280;41888;44.696;10.522;2023-04-01T23:05:31;99426.28;;;13.17;61.19
56006;BME280;41888;44.696;10.522;2023-04-01T23:10:58;99434.28;;;13.17;61.28
56006;BME280;41888;44.696;10.522;2023-04-01T23:13:34;99428.41;;;13.15;61.35
56006;BME280;41888;44.696;10.522;2023-04-01T23:16:05;99434.78;;;13.14;61.46
56006;BME280;41888;44.696;10.522;2023-04-01T23:19:22;99445.59;;;13.07;61.26
56006;BME280;41888;44.696;10.522;2023-04-01T23:21:24;99450.41;;;13.05;61.11
56006;BME280;41888;44.696;10.522;2023-04-01T23:26:50;99447.25;;;12.58;63.37
56006;BME280;41888;44.696;10.522;2023-04-01T23:29:19;99451.41;;;12.54;64.11
56006;BME280;41888;44.696;10.522;2023-04-01T23:32:00;99457.09;;;12.57;64.12
56006;BME280;41888;44.696;10.522;2023-04-01T23:34:34;99463.53;;;12.45;65.06
56006;BME280;41888;44.696;10.522;2023-04-01T23:37:10;99465.44;;;12.33;66.23
56006;BME280;41888;44.696;10.522;2023-04-01T23:39:53;99465.53;;;12.21;67.37
56006;BME280;41888;44.696;10.522;2023-04-01T23:42:39;99474.59;;;12.08;68.80
56006;BME280;41888;44.696;10.522;2023-04-01T23:45:14;99466.75;;;12.02;69.64
56006;BME280;41888;44.696;10.522;2023-04-01T23:47:47;99467.47;;;11.97;69.95
56006;BME280;41888;44.696;10.522;2023-04-01T23:50:21;99465.50;;;11.93;70.75
56006;BME280;41888;44.696;10.522;2023-04-01T23:53:03;99477.69;;;11.89;71.16
56006;BME280;41888;44.696;10.522;2023-04-01T23:55:33;99470.16;;;11.85;72.08
